createdAt,value
2023-03-19T00:00:52.964Z,100188.31
2023-03-19T00:03:20.731Z,100185.78
2023-03-19T00:05:53.077Z,100185.50
2023-03-19T00:08:21.097Z,100186.84
2023-03-19T00:10:48.802Z,100191.34
2023-03-19T00:13:16.793Z,100191.50
2023-03-19T00:15:44.570Z,100191.19
2023-03-19T00:18:13.851Z,100190.06
2023-03-19T00:20:41.591Z,100180.84
2023-03-19T00:23:09.342Z,100182.06
2023-03-19T00:25:37.337Z,100181.47
2023-03-19T00:28:05.118Z,100176.31
2023-03-19T00:30:32.814Z,100187.69
2023-03-19T00:33:01.329Z,100184.59
2023-03-19T00:35:30.401Z,100187.38
2023-03-19T00:37:58.108Z,100184.31
2023-03-19T00:40:26.078Z,100196.25
2023-03-19T00:42:54.092Z,100209.47
2023-03-19T00:45:21.776Z,100199.25
2023-03-19T00:47:49.504Z,100211.44
2023-03-19T00:50:17.379Z,100201.03
2023-03-19T00:52:46.578Z,100205.72
2023-03-19T00:55:14.377Z,100203.03
2023-03-19T00:57:42.150Z,100206.47
2023-03-19T01:00:11.333Z,100196.88
2023-03-19T01:02:39.012Z,100201.34
2023-03-19T01:05:08.120Z,100212.84
2023-03-19T01:07:35.880Z,100216.47
2023-03-19T01:10:06.098Z,100218.94
2023-03-19T01:12:34.041Z,100222.03
2023-03-19T01:15:01.851Z,100221.22
2023-03-19T01:17:29.832Z,100216.47
2023-03-19T01:19:57.560Z,100224.00
2023-03-19T01:22:25.599Z,100217.03
2023-03-19T01:24:53.433Z,100221.22
2023-03-19T01:27:23.010Z,100221.97
2023-03-19T01:29:52.157Z,100221.38
2023-03-19T01:32:19.842Z,100210.59
2023-03-19T01:34:47.787Z,100205.75
2023-03-19T01:37:15.529Z,100207.78
2023-03-19T01:39:43.202Z,100215.97
2023-03-19T01:42:11.097Z,100202.66
2023-03-19T01:44:42.043Z,100207.56
2023-03-19T01:47:17.336Z,100210.06
2023-03-19T01:49:47.847Z,100203.50
2023-03-19T01:52:16.987Z,100193.31
2023-03-19T01:54:45.380Z,100201.47
2023-03-19T01:57:14.953Z,100198.38
2023-03-19T01:59:45.748Z,100187.69
2023-03-19T02:02:17.752Z,100174.91
2023-03-19T02:04:46.912Z,100181.41
2023-03-19T02:07:15.764Z,100181.56
2023-03-19T02:09:43.974Z,100182.75
2023-03-19T02:12:12.614Z,100187.84
2023-03-19T02:14:40.608Z,100182.72
2023-03-19T02:17:09.803Z,100180.44
2023-03-19T02:19:42.026Z,100201.41
2023-03-19T02:22:11.049Z,100206.22
2023-03-19T02:24:42.317Z,100195.03
2023-03-19T02:27:11.612Z,100198.09
2023-03-19T02:29:39.326Z,100206.84
2023-03-19T02:32:07.330Z,100202.16
2023-03-19T02:34:37.922Z,100195.78
2023-03-19T02:37:10.652Z,100185.50
2023-03-19T02:39:43.661Z,100190.31
2023-03-19T02:42:13.772Z,100183.13
2023-03-19T02:44:41.439Z,100195.72
2023-03-19T02:47:09.282Z,100198.16
2023-03-19T02:49:37.215Z,100201.94
2023-03-19T02:52:05.641Z,100196.03
2023-03-19T02:54:33.402Z,100195.22
2023-03-19T02:57:01.070Z,100191.63
2023-03-19T02:59:30.496Z,100182.50
2023-03-19T03:01:58.364Z,100183.59
2023-03-19T03:04:26.758Z,100183.16
2023-03-19T03:06:54.619Z,100186.19
2023-03-19T03:09:22.795Z,100186.56
2023-03-19T03:11:51.044Z,100184.88
2023-03-19T03:14:18.756Z,100193.72
2023-03-19T03:16:47.946Z,100189.06
2023-03-19T03:19:15.898Z,100194.94
2023-03-19T03:21:43.855Z,100186.63
2023-03-19T03:24:12.000Z,100200.69
2023-03-19T03:26:39.891Z,100182.72
2023-03-19T03:29:08.231Z,100179.84
2023-03-19T03:31:35.980Z,100185.97
2023-03-19T03:34:05.579Z,100196.09
2023-03-19T03:36:33.760Z,100193.34
2023-03-19T03:39:01.764Z,100207.03
2023-03-19T03:41:29.646Z,100188.31
2023-03-19T03:43:57.656Z,100200.63
2023-03-19T03:46:25.521Z,100197.47
2023-03-19T03:48:53.166Z,100201.09
2023-03-19T03:51:22.370Z,100196.69
2023-03-19T03:53:50.149Z,100193.13
2023-03-19T03:56:17.954Z,100192.94
2023-03-19T03:58:46.020Z,100192.94
2023-03-19T04:01:15.599Z,100194.09
2023-03-19T04:03:43.286Z,100202.25
2023-03-19T04:06:11.505Z,100200.84
2023-03-19T04:08:40.723Z,100199.91
2023-03-19T04:11:09.043Z,100206.25
2023-03-19T04:13:37.304Z,100206.56
2023-03-19T04:16:05.695Z,100200.00
2023-03-19T04:18:33.396Z,100208.13
2023-03-19T04:21:01.469Z,100209.97
2023-03-19T04:23:29.122Z,100204.38
2023-03-19T04:26:01.837Z,100208.06
2023-03-19T04:28:29.565Z,100210.53
2023-03-19T04:31:00.647Z,100213.91
2023-03-19T04:33:28.476Z,100221.56
2023-03-19T04:35:56.636Z,100221.78
2023-03-19T04:38:26.317Z,100217.28
2023-03-19T04:40:54.330Z,100208.25
2023-03-19T04:43:23.474Z,100206.13
2023-03-19T04:45:51.514Z,100232.00
2023-03-19T04:48:19.490Z,100207.94
2023-03-19T04:50:47.616Z,100215.50
2023-03-19T04:53:15.330Z,100220.28
2023-03-19T04:55:42.996Z,100219.59
2023-03-19T04:58:11.004Z,100214.44
2023-03-19T05:00:40.075Z,100220.44
2023-03-19T05:03:07.747Z,100215.72
2023-03-19T05:05:35.443Z,100220.72
2023-03-19T05:08:03.625Z,100227.50
2023-03-19T05:10:32.610Z,100219.34
2023-03-19T05:13:00.511Z,100221.69
2023-03-19T05:15:28.291Z,100229.66
2023-03-19T05:17:57.838Z,100230.97
2023-03-19T05:20:25.686Z,100227.09
2023-03-19T05:22:53.942Z,100233.13
2023-03-19T05:25:21.623Z,100241.84
2023-03-19T05:27:49.376Z,100234.75
2023-03-19T05:30:18.381Z,100236.63
2023-03-19T05:32:46.782Z,100238.91
2023-03-19T05:35:16.205Z,100231.09
2023-03-19T05:37:43.946Z,100240.16
2023-03-19T05:40:13.626Z,100241.19
2023-03-19T05:42:41.442Z,100238.13
2023-03-19T05:45:09.955Z,100249.00
2023-03-19T05:47:37.760Z,100247.75
2023-03-19T05:50:06.566Z,100249.78
2023-03-19T05:52:35.818Z,100253.56
2023-03-19T05:55:04.687Z,100257.06
2023-03-19T05:57:32.418Z,100249.66
2023-03-19T06:00:00.074Z,100246.69
2023-03-19T06:02:27.806Z,100255.38
2023-03-19T06:04:55.543Z,100240.50
2023-03-19T06:07:23.298Z,100256.03
2023-03-19T06:09:52.451Z,100247.53
2023-03-19T06:12:20.745Z,100250.31
2023-03-19T06:14:48.403Z,100255.84
2023-03-19T06:17:16.170Z,100259.09
2023-03-19T06:19:44.167Z,100257.72
2023-03-19T06:22:12.372Z,100259.91
2023-03-19T06:24:40.064Z,100264.75
2023-03-19T06:27:09.717Z,100265.06
2023-03-19T06:29:37.484Z,100270.94
2023-03-19T06:32:05.675Z,100267.84
2023-03-19T06:34:33.320Z,100264.56
2023-03-19T06:37:01.111Z,100263.59
2023-03-19T06:39:29.090Z,100274.59
2023-03-19T06:41:57.720Z,100262.66
2023-03-19T06:44:27.389Z,100269.50
2023-03-19T06:46:55.029Z,100277.16
2023-03-19T06:49:23.096Z,100290.28
2023-03-19T06:51:50.847Z,100291.09
2023-03-19T06:54:18.517Z,100293.78
2023-03-19T06:56:46.250Z,100282.91
2023-03-19T06:59:14.087Z,100297.78
2023-03-19T07:01:43.328Z,100308.19
2023-03-19T07:04:11.290Z,100294.09
2023-03-19T07:06:39.017Z,100311.19
2023-03-19T07:09:06.745Z,100310.06
2023-03-19T07:11:35.904Z,100305.22
2023-03-19T07:14:03.925Z,100318.38
2023-03-19T07:16:31.668Z,100325.00
2023-03-19T07:19:03.165Z,100318.50
2023-03-19T07:21:31.092Z,100319.66
2023-03-19T07:23:58.759Z,100322.69
2023-03-19T07:26:26.524Z,100324.00
2023-03-19T07:28:54.303Z,100332.19
2023-03-19T07:31:22.166Z,100335.22
2023-03-19T07:33:49.855Z,100334.03
2023-03-19T07:36:18.984Z,100343.66
2023-03-19T07:38:46.645Z,100347.34
2023-03-19T07:41:14.474Z,100342.50
2023-03-19T07:43:42.277Z,100345.81
2023-03-19T07:46:09.956Z,100337.16
2023-03-19T07:48:37.660Z,100342.34
2023-03-19T07:51:05.743Z,100352.34
2023-03-19T07:53:34.814Z,100350.09
2023-03-19T07:56:02.481Z,100353.59
2023-03-19T07:58:30.771Z,100363.22
2023-03-19T08:00:58.441Z,100362.66
2023-03-19T08:03:26.135Z,100356.31
2023-03-19T08:05:53.904Z,100358.38
2023-03-19T08:08:21.605Z,100353.31
2023-03-19T08:10:50.992Z,100346.22
2023-03-19T08:13:18.769Z,100346.03
2023-03-19T08:15:46.622Z,100353.16
2023-03-19T08:18:14.302Z,100360.81
2023-03-19T08:20:41.975Z,100368.69
2023-03-19T08:23:09.988Z,100372.44
2023-03-19T08:25:37.666Z,100368.13
2023-03-19T08:28:07.209Z,100381.31
2023-03-19T08:30:45.015Z,100369.88
2023-03-19T08:33:12.834Z,100375.66
2023-03-19T08:35:40.774Z,100367.69
2023-03-19T08:38:08.510Z,100372.19
2023-03-19T08:40:36.729Z,100374.59
2023-03-19T08:43:06.756Z,100375.56
2023-03-19T08:45:34.449Z,100376.31
2023-03-19T08:48:02.112Z,100383.22
2023-03-19T08:50:29.841Z,100381.22
2023-03-19T08:52:57.697Z,100396.38
2023-03-19T08:55:25.441Z,100382.88
2023-03-19T08:57:53.117Z,100391.47
2023-03-19T09:00:23.395Z,100385.91
2023-03-19T09:02:51.084Z,100397.44
2023-03-19T09:05:22.334Z,100397.97
2023-03-19T09:07:51.954Z,100409.53
2023-03-19T09:10:19.633Z,100407.63
2023-03-19T09:12:48.573Z,100407.56
2023-03-19T09:15:17.041Z,100413.84
2023-03-19T09:17:46.183Z,100412.97
2023-03-19T09:20:14.086Z,100425.25
2023-03-19T09:22:41.773Z,100416.72
2023-03-19T09:25:10.539Z,100431.69
2023-03-19T09:27:38.249Z,100421.66
2023-03-19T09:30:09.686Z,100434.44
2023-03-19T09:32:37.604Z,100429.56
2023-03-19T09:35:07.957Z,100421.03
2023-03-19T09:37:36.182Z,100431.03
2023-03-19T09:40:05.302Z,100438.00
2023-03-19T09:42:54.801Z,100428.91
2023-03-19T09:45:22.669Z,100432.47
2023-03-19T09:47:53.162Z,100430.13
2023-03-19T09:50:24.670Z,100427.72
2023-03-19T09:52:56.585Z,100420.03
2023-03-19T09:55:34.069Z,100413.09
2023-03-19T09:58:02.710Z,100423.84
2023-03-19T10:00:33.952Z,100430.41
2023-03-19T10:03:05.410Z,100439.38
2023-03-19T10:05:42.581Z,100435.75
2023-03-19T10:08:25.871Z,100439.59
2023-03-19T10:11:04.737Z,100437.31
2023-03-19T10:13:43.485Z,100445.22
2023-03-19T10:16:15.352Z,100447.75
2023-03-19T10:18:46.574Z,100452.13
2023-03-19T10:21:20.171Z,100447.94
2023-03-19T10:23:49.452Z,100462.91
2023-03-19T10:26:19.016Z,100445.66
2023-03-19T10:28:50.879Z,100449.25
2023-03-19T10:31:27.311Z,100458.38
2023-03-19T10:34:03.234Z,100455.53
2023-03-19T10:36:35.627Z,100451.38
2023-03-19T10:39:07.893Z,100457.31
2023-03-19T10:41:43.875Z,100464.31
2023-03-19T10:44:17.406Z,100468.78
2023-03-19T10:46:45.081Z,100464.44
2023-03-19T10:49:13.435Z,100458.50
2023-03-19T10:51:44.866Z,100459.06
2023-03-19T10:54:23.375Z,100456.84
2023-03-19T10:56:52.001Z,100457.31
2023-03-19T10:59:25.410Z,100458.75
2023-03-19T11:01:57.778Z,100467.13
2023-03-19T11:04:27.947Z,100463.91
2023-03-19T11:06:58.285Z,100467.22
2023-03-19T11:09:33.160Z,100464.59
2023-03-19T11:12:07.761Z,100477.22
2023-03-19T11:14:37.320Z,100464.88
2023-03-19T11:17:07.697Z,100466.56
2023-03-19T11:19:41.598Z,100465.81
2023-03-19T11:22:18.915Z,100462.63
2023-03-19T11:24:54.012Z,100465.31
2023-03-19T11:27:28.690Z,100461.47
2023-03-19T11:29:56.896Z,100463.34
2023-03-19T11:32:36.056Z,100456.38
2023-03-19T11:35:08.433Z,100464.47
2023-03-19T11:37:52.152Z,100466.69
2023-03-19T11:40:25.165Z,100465.88
2023-03-19T11:43:01.551Z,100454.72
2023-03-19T11:45:34.813Z,100463.69
2023-03-19T11:48:22.879Z,100459.03
2023-03-19T11:50:52.337Z,100454.69
2023-03-19T11:53:26.262Z,100444.88
2023-03-19T11:56:01.177Z,100450.69
2023-03-19T11:58:49.282Z,100452.38
2023-03-19T12:01:23.094Z,100457.94
2023-03-19T12:03:59.477Z,100453.34
2023-03-19T12:06:37.437Z,100460.69
2023-03-19T12:09:12.108Z,100456.72
2023-03-19T12:11:45.357Z,100469.38
2023-03-19T12:14:22.749Z,100464.44
2023-03-19T12:17:04.576Z,100471.03
2023-03-19T12:19:52.876Z,100468.34
2023-03-19T12:22:30.894Z,100472.66
2023-03-19T12:25:09.238Z,100478.53
2023-03-19T12:27:41.426Z,100468.59
2023-03-19T12:30:15.937Z,100486.06
2023-03-19T12:32:58.133Z,100485.72
2023-03-19T12:35:27.581Z,100478.59
2023-03-19T12:37:59.485Z,100475.75
2023-03-19T12:40:31.452Z,100461.78
2023-03-19T12:43:00.924Z,100460.66
2023-03-19T12:45:31.100Z,100469.81
2023-03-19T12:48:01.915Z,100474.13
2023-03-19T12:50:40.848Z,100473.09
2023-03-19T12:53:13.014Z,100471.25
2023-03-19T12:55:45.996Z,100482.63
2023-03-19T12:58:19.403Z,100476.19
2023-03-19T13:00:52.027Z,100473.19
2023-03-19T13:03:24.858Z,100483.94
2023-03-19T13:05:57.890Z,100496.16
2023-03-19T13:08:30.593Z,100495.78
2023-03-19T13:11:00.811Z,100495.69
2023-03-19T13:13:36.692Z,100479.19
2023-03-19T13:16:11.772Z,100494.25
2023-03-19T13:18:43.037Z,100478.63
2023-03-19T13:21:24.660Z,100481.34
2023-03-19T13:24:03.361Z,100478.00
2023-03-19T13:26:32.618Z,100472.56
2023-03-19T13:29:02.756Z,100470.03
2023-03-19T13:31:35.383Z,100489.81
2023-03-19T13:34:04.624Z,100473.34
2023-03-19T13:36:38.136Z,100487.06
2023-03-19T13:39:13.661Z,100485.69
2023-03-19T13:41:59.741Z,100492.47
2023-03-19T13:44:37.160Z,100480.81
2023-03-19T13:47:29.160Z,100468.88
2023-03-19T13:50:05.639Z,100461.25
2023-03-19T13:52:50.408Z,100459.59
2023-03-19T13:55:46.307Z,100446.72
2023-03-19T13:58:34.734Z,100461.75
2023-03-19T14:01:02.478Z,100454.06
2023-03-19T14:03:32.310Z,100449.84
2023-03-19T14:06:00.786Z,100457.31
2023-03-19T14:11:24.966Z,100447.81
2023-03-19T14:13:54.810Z,100459.22
2023-03-19T14:16:25.580Z,100460.69
2023-03-19T14:18:57.156Z,100456.44
2023-03-19T14:21:35.907Z,100461.97
2023-03-19T14:27:19.866Z,100456.53
2023-03-19T14:29:49.590Z,100466.38
2023-03-19T14:32:18.930Z,100455.19
2023-03-19T14:34:47.984Z,100467.91
2023-03-19T14:37:21.120Z,100467.88
2023-03-19T14:39:52.640Z,100479.25
2023-03-19T14:42:22.712Z,100485.34
2023-03-19T14:45:21.422Z,100474.47
2023-03-19T14:48:06.320Z,100474.50
2023-03-19T14:50:44.071Z,100471.94
2023-03-19T14:53:14.852Z,100477.09
2023-03-19T14:55:43.324Z,100477.72
2023-03-19T14:58:11.935Z,100460.81
2023-03-19T15:00:44.751Z,100457.81
2023-03-19T15:03:22.391Z,100472.94
2023-03-19T15:05:51.975Z,100476.19
2023-03-19T15:08:23.489Z,100479.66
2023-03-19T15:10:59.373Z,100479.16
2023-03-19T15:13:36.618Z,100468.16
2023-03-19T15:16:21.363Z,100478.44
2023-03-19T15:18:49.884Z,100478.88
2023-03-19T15:21:17.916Z,100476.16
2023-03-19T15:23:47.497Z,100487.34
2023-03-19T15:26:18.511Z,100469.91
2023-03-19T15:28:49.371Z,100474.56
2023-03-19T15:31:31.654Z,100476.19
2023-03-19T15:34:18.587Z,100470.44
2023-03-19T15:36:46.688Z,100455.81
2023-03-19T15:39:17.071Z,100456.22
2023-03-19T15:41:47.399Z,100466.34
2023-03-19T15:44:18.806Z,100469.38
2023-03-19T15:46:48.427Z,100457.28
2023-03-19T15:49:18.536Z,100463.69
2023-03-19T15:51:51.451Z,100464.69
2023-03-19T15:54:20.091Z,100468.78
2023-03-19T15:56:49.604Z,100488.88
2023-03-19T15:59:18.531Z,100483.66
2023-03-19T16:01:47.708Z,100482.97
2023-03-19T16:04:19.768Z,100493.84
2023-03-19T16:06:48.687Z,100496.47
2023-03-19T16:09:23.994Z,100491.69
2023-03-19T16:11:52.001Z,100491.66
2023-03-19T16:14:27.556Z,100496.03
2023-03-19T16:17:03.060Z,100501.19
2023-03-19T16:19:34.068Z,100495.50
2023-03-19T16:22:02.203Z,100490.03
2023-03-19T16:24:33.693Z,100497.09
2023-03-19T16:27:05.108Z,100495.47
2023-03-19T16:32:39.710Z,100512.59
2023-03-19T16:35:14.338Z,100484.59
2023-03-19T16:37:43.552Z,100498.16
2023-03-19T16:40:41.744Z,100499.00
2023-03-19T16:43:17.173Z,100520.00
2023-03-19T16:45:45.557Z,100515.09
2023-03-19T16:48:14.699Z,100497.94
2023-03-19T16:50:43.790Z,100518.06
2023-03-19T16:53:20.721Z,100522.03
2023-03-19T16:55:48.595Z,100526.41
2023-03-19T16:58:17.857Z,100535.69
2023-03-19T17:00:46.189Z,100529.81
2023-03-19T17:03:16.797Z,100535.03
2023-03-19T17:05:45.268Z,100555.50
2023-03-19T17:08:13.560Z,100542.72
2023-03-19T17:10:44.153Z,100544.94
2023-03-19T17:13:17.347Z,100565.31
2023-03-19T17:16:07.391Z,100561.31
2023-03-19T17:18:38.203Z,100557.41
2023-03-19T17:21:07.890Z,100570.28
2023-03-19T17:23:35.751Z,100578.84
2023-03-19T17:26:04.873Z,100565.53
2023-03-19T17:28:33.077Z,100557.97
2023-03-19T17:31:00.832Z,100569.25
2023-03-19T17:33:29.859Z,100577.94
2023-03-19T17:35:59.610Z,100572.72
2023-03-19T17:38:33.038Z,100580.41
2023-03-19T17:41:00.917Z,100579.84
2023-03-19T17:43:28.569Z,100584.19
2023-03-19T17:45:57.070Z,100595.06
2023-03-19T17:48:26.565Z,100590.31
2023-03-19T17:50:56.934Z,100607.59
2023-03-19T17:53:46.878Z,100599.34
2023-03-19T17:56:17.110Z,100593.91
2023-03-19T17:58:45.041Z,100601.78
2023-03-19T18:01:15.354Z,100606.75
2023-03-19T18:03:43.388Z,100599.91
2023-03-19T18:06:17.095Z,100600.94
2023-03-19T18:08:46.356Z,100607.69
2023-03-19T18:11:14.531Z,100614.63
2023-03-19T18:13:42.581Z,100615.88
2023-03-19T18:16:17.557Z,100624.34
2023-03-19T18:18:45.371Z,100630.38
2023-03-19T18:21:14.765Z,100638.44
2023-03-19T18:23:42.892Z,100635.38
2023-03-19T18:26:12.228Z,100619.75
2023-03-19T18:28:40.199Z,100641.81
2023-03-19T18:31:15.138Z,100651.72
2023-03-19T18:33:45.794Z,100647.34
2023-03-19T18:36:15.391Z,100650.66
2023-03-19T18:38:43.085Z,100650.28
2023-03-19T18:41:15.750Z,100650.31
2023-03-19T18:43:43.822Z,100664.53
2023-03-19T18:46:14.069Z,100658.41
2023-03-19T18:48:42.043Z,100664.75
2023-03-19T18:51:11.377Z,100680.69
2023-03-19T18:53:39.191Z,100661.94
2023-03-19T18:56:40.457Z,100672.09
2023-03-19T18:59:12.730Z,100674.63
2023-03-19T19:01:40.743Z,100680.66
2023-03-19T19:04:08.738Z,100699.72
2023-03-19T19:06:47.201Z,100696.84
2023-03-19T19:09:15.939Z,100711.03
2023-03-19T19:11:47.560Z,100707.97
2023-03-19T19:14:20.330Z,100714.03
2023-03-19T19:16:48.521Z,100707.31
2023-03-19T19:19:20.219Z,100710.41
2023-03-19T19:21:48.408Z,100728.53
2023-03-19T19:24:17.854Z,100714.13
2023-03-19T19:26:48.567Z,100730.41
2023-03-19T19:29:29.606Z,100733.53
2023-03-19T19:31:57.451Z,100737.56
2023-03-19T19:34:25.604Z,100744.31
2023-03-19T19:36:57.587Z,100750.38
2023-03-19T19:39:25.360Z,100752.59
2023-03-19T19:41:56.183Z,100756.31
2023-03-19T19:44:23.972Z,100751.19
2023-03-19T19:46:53.301Z,100752.81
2023-03-19T19:49:42.074Z,100763.25
2023-03-19T19:52:13.917Z,100758.19
2023-03-19T19:54:41.627Z,100750.66
2023-03-19T19:57:19.500Z,100764.44
2023-03-19T19:59:47.341Z,100766.69
2023-03-19T20:02:21.669Z,100768.53
2023-03-19T20:04:49.568Z,100760.59
2023-03-19T20:07:17.225Z,100769.59
2023-03-19T20:09:44.936Z,100777.66
2023-03-19T20:12:19.702Z,100769.38
2023-03-19T20:14:47.895Z,100775.84
2023-03-19T20:17:17.209Z,100767.47
2023-03-19T20:19:46.454Z,100767.19
2023-03-19T20:22:14.124Z,100776.03
2023-03-19T20:24:42.262Z,100779.88
2023-03-19T20:27:19.113Z,100788.69
2023-03-19T20:29:46.842Z,100785.84
2023-03-19T20:32:26.211Z,100790.09
2023-03-19T20:34:54.094Z,100800.94
2023-03-19T20:37:21.746Z,100798.91
2023-03-19T20:39:49.396Z,100803.09
2023-03-19T20:42:18.569Z,100809.59
2023-03-19T20:44:47.349Z,100820.16
2023-03-19T20:47:17.597Z,100817.34
2023-03-19T20:49:45.691Z,100817.13
2023-03-19T20:52:14.534Z,100818.94
2023-03-19T20:54:42.223Z,100810.34
2023-03-19T20:57:14.614Z,100816.03
2023-03-19T20:59:45.933Z,100822.22
2023-03-19T21:02:17.864Z,100823.81
2023-03-19T21:04:45.900Z,100823.13
2023-03-19T21:07:28.664Z,100827.75
2023-03-19T21:09:56.928Z,100829.19
2023-03-19T21:12:29.380Z,100817.53
2023-03-19T21:14:58.781Z,100839.13
2023-03-19T21:17:27.338Z,100828.44
2023-03-19T21:19:55.029Z,100817.13
2023-03-19T21:22:24.392Z,100812.84
2023-03-19T21:24:53.649Z,100825.09
2023-03-19T21:27:23.478Z,100811.75
2023-03-19T21:29:51.880Z,100817.59
2023-03-19T21:32:21.443Z,100806.63
2023-03-19T21:34:52.952Z,100809.53
2023-03-19T21:37:21.053Z,100813.22
2023-03-19T21:39:48.782Z,100822.25
2023-03-19T21:42:18.054Z,100817.34
2023-03-19T21:44:46.646Z,100815.06
2023-03-19T21:47:14.911Z,100817.41
2023-03-19T21:49:44.242Z,100819.19
2023-03-19T21:52:13.782Z,100812.69
2023-03-19T21:54:41.524Z,100817.50
2023-03-19T21:57:10.924Z,100797.72
2023-03-19T21:59:38.689Z,100804.94
2023-03-19T22:02:17.054Z,100819.19
2023-03-19T22:04:46.450Z,100806.47
2023-03-19T22:07:14.097Z,100811.44
2023-03-19T22:09:41.742Z,100812.75
2023-03-19T22:12:11.442Z,100819.72
2023-03-19T22:14:40.210Z,100818.88
2023-03-19T22:17:10.157Z,100805.47
2023-03-19T22:19:37.944Z,100805.59
2023-03-19T22:22:07.341Z,100821.13
2023-03-19T22:24:34.996Z,100838.28
2023-03-19T22:27:02.845Z,100830.16
2023-03-19T22:29:32.342Z,100835.53
2023-03-19T22:32:00.002Z,100838.78
2023-03-19T22:34:28.790Z,100819.75
2023-03-19T22:36:56.878Z,100833.00
2023-03-19T22:39:26.057Z,100845.59
2023-03-19T22:41:53.708Z,100840.00
2023-03-19T22:44:26.634Z,100839.28
2023-03-19T22:46:55.249Z,100818.44
2023-03-19T22:49:24.715Z,100844.03
2023-03-19T22:51:52.551Z,100842.78
2023-03-19T22:54:20.358Z,100851.22
2023-03-19T22:56:49.576Z,100861.69
2023-03-19T22:59:17.318Z,100856.38
2023-03-19T23:01:46.372Z,100855.38
2023-03-19T23:04:19.453Z,100833.47
2023-03-19T23:06:47.330Z,100846.56
2023-03-19T23:09:16.851Z,100853.53
2023-03-19T23:11:44.588Z,100857.09
2023-03-19T23:14:27.959Z,100858.09
2023-03-19T23:19:26.541Z,100871.81
2023-03-19T23:21:54.640Z,100883.63
2023-03-19T23:24:22.723Z,100881.44
2023-03-19T23:26:54.572Z,100882.84
2023-03-19T23:29:24.925Z,100882.69
2023-03-19T23:31:52.571Z,100891.25
2023-03-19T23:34:20.528Z,100896.97
2023-03-19T23:36:48.236Z,100885.78
2023-03-19T23:39:16.443Z,100898.53
2023-03-19T23:41:48.248Z,100897.44
2023-03-19T23:44:17.810Z,100892.94
2023-03-19T23:46:49.284Z,100880.63
2023-03-19T23:49:18.628Z,100876.19
2023-03-19T23:51:46.705Z,100874.00
2023-03-19T23:54:29.162Z,100871.34
2023-03-19T23:56:58.327Z,100895.38
2023-03-19T23:59:26.720Z,100895.75
